Latest Weather Observations for Lake Macquarie - Cooranbong

IDN60901

Issued at 6:05 pm EST Wednesday 1 October 2014 (issued every 10 minutes, with the page automatically refreshed every 10 minutes)

About weather observations | Map of Sydney area stations | Latest observations for Sydney area | Other Formats
Station Details ID: 061412 Name: LAKE MACQUARIE AWS Lat: -33.09 Lon: 151.46 Height: 6.0 m
Data from the previous 72 hours. | See also: Recent months at Lake Macquarie - Cooranbong
Date/Time
EST
Tmp

°C
App
Tmp
°C
Dew
Point
°C
Rel
Hum
%
Delta-T

°C
Wind Press
QNH
hPa
Press
MSL
hPa
Rain
since
9 am
mm
Dir
 
Spd
km/h
Gust
km/h
Spd
kts
Gust
kts
01/06:00pm 15.0 12.9 3.8 47 5.1 SSE 4 9 2 5 1020.9 1020.9 0.0
01/05:30pm 16.0 13.2 3.1 42 5.9 SSE 7 13 4 7 1020.5 1020.5 0.0
01/05:00pm 16.6 13.3 2.6 39 6.3 SE 9 20 5 11 1020.1 1020.1 0.0
01/04:30pm 17.4 14.0 1.8 35 7.0 SSE 9 19 5 10 1019.6 1019.6 0.0
01/04:00pm 17.7 14.3 2.1 35 7.0 SSE 9 15 5 8 1019.3 1019.3 0.0
01/03:30pm 18.3 15.0 2.6 35 7.2 ESE 9 19 5 10 1018.9 1018.9 0.0
01/03:00pm 18.5 14.7 1.5 32 7.6 SSE 11 24 6 13 1018.7 1018.7 0.0
01/02:30pm 18.7 14.5 1.7 32 7.7 SE 13 22 7 12 1018.5 1018.5 0.0
01/02:00pm 18.7 14.0 1.2 31 7.8 SSE 15 30 8 16 1018.4 1018.4 0.0
01/01:30pm 18.9 14.1 0.5 29 8.1 SSE 15 26 8 14 1018.2 1018.2 0.0
01/01:00pm 19.4 15.3 -0.1 27 8.5 SE 11 22 6 12 1018.4 1018.4 0.0
01/12:30pm 20.7 15.5 -6.0 16 10.5 SSW 13 28 7 15 1018.4 1018.4 0.0
01/12:00pm 21.1 16.7 -5.7 16 10.6 SW 9 19 5 10 1018.2 1018.2 0.0
01/11:30am 20.7 16.4 -5.2 17 10.4 WSW 9 30 5 16 1018.4 1018.4 0.0
01/11:00am 20.1 15.5 -4.2 19 9.8 SW 11 24 6 13 1018.3 1018.3 0.0
01/10:30am 19.5 15.3 -1.0 25 8.8 SW 11 24 6 13 1018.3 1018.3 0.0
01/10:00am 19.4 14.8 -1.1 25 8.8 S 13 24 7 13 1018.3 1018.3 0.0
01/09:30am 19.3 15.8 1.3 30 8.1 S 9 20 5 11 1018.1 1018.1 0.0
01/09:00am 18.9 14.8 -0.5 27 8.4 S 11 26 6 14 1017.7 1017.7 0.0
01/08:30am 18.5 14.8 -0.3 28 8.1 S 9 20 5 11 1017.2 1017.2 0.0
01/08:00am 18.2 14.1 -0.1 29 7.9 SSE 11 20 6 11 1016.6 1016.6 0.0
01/07:30am 19.0 15.3 2.4 33 7.6 SSW 11 22 6 12 1015.7 1015.7 0.0
01/07:00am 19.1 15.7 2.0 32 7.8 WSW 9 17 5 9 1015.1 1015.1 0.0
01/06:30am 16.0 15.3 8.5 61 3.8 S 2 7 1 4 1014.5 1014.5 0.0
01/06:00am 14.3 13.9 8.3 67 3.0 CALM 0 0 0 0 1013.9 1013.9 0.0
01/05:30am 15.8 14.5 6.0 52 4.7 S 2 7 1 4 1013.4 1013.4 0.0
01/05:00am 17.8 16.2 6.3 47 5.7 SSW 4 7 2 4 1012.3 1012.3 0.0
01/04:30am 14.3 13.3 8.9 70 2.7 S 4 11 2 6 1011.5 1011.5 0.0
01/04:00am 12.7 12.8 10.1 84 1.3 CALM 0 0 0 0 1010.2 1010.2 0.0
01/03:30am 13.0 13.2 10.4 84 1.3 CALM 0 2 0 1 1009.5 1009.5 0.0
01/03:00am 12.6 12.5 10.7 88 1.0 N 2 6 1 3 1008.8 1008.8 0.0
01/02:30am 13.2 13.6 11.4 89 1.0 CALM 0 0 0 0 1008.5 1008.5 0.0
01/02:00am 13.4 13.8 11.3 87 1.1 CALM 0 0 0 0 1008.0 1008.0 0.0
01/01:30am 13.6 13.9 11.0 84 1.4 CALM 0 0 0 0 1007.8 1007.8 0.0
01/01:00am 13.9 14.3 11.4 85 1.3 CALM 0 0 0 0 1007.9 1007.9 0.0
01/12:30am 14.2 14.3 11.4 83 1.5 NNW 2 7 1 4 1008.1 1008.1 0.0
01/12:00am 14.4 14.4 11.2 81 1.7 N 2 6 1 3 1008.3 1008.3 0.0
 
Date/Time
EST
Tmp

°C
App
Tmp
°C
Dew
Point
°C
Rel
Hum
%
Delta-T

°C
Wind Press
QNH
hPa
Press
MSL
hPa
Rain
since
9 am
mm
Dir
 
Spd
km/h
Gust
km/h
Spd
kts
Gust
kts
30/11:30pm 15.1 15.6 11.5 79 1.9 CALM 0 6 0 3 1008.2 1008.2 0.0
30/11:00pm 15.6 16.0 11.2 75 2.4 CALM 0 0 0 0 1008.2 1008.2 0.0
30/10:30pm 16.3 16.9 11.9 75 2.4 CALM 0 0 0 0 1008.5 1008.5 0.0
30/10:00pm 16.9 17.3 11.2 69 3.1 CALM 0 0 0 0 1008.4 1008.4 0.0
30/09:30pm 18.1 18.7 11.9 67 3.4 CALM 0 0 0 0 1008.7 1008.7 0.0
30/09:00pm 19.5 19.5 11.0 58 4.6 W 2 4 1 2 1009.0 1009.0 0.0
30/08:30pm 22.2 21.9 10.0 46 6.6 N 2 6 1 3 1009.4 1009.4 0.0
30/08:00pm 25.9 23.9 7.0 30 9.9 N 7 13 4 7 1009.5 1009.5 0.0
30/07:30pm 27.2 25.1 6.6 27 10.8 NNW 7 13 4 7 1009.6 1009.6 0.0
30/07:00pm 27.8 25.2 6.0 25 11.4 N 9 17 5 9 1009.4 1009.4 0.0
30/06:30pm 27.7 24.8 6.5 26 11.2 N 11 19 6 10 1009.3 1009.3 0.0
30/06:00pm 28.5 25.6 6.6 25 11.6 N 11 22 6 12 1009.3 1009.3 0.0
30/05:30pm 29.3 25.5 6.0 23 12.3 N 15 24 8 13 1009.1 1009.1 0.0
30/05:00pm 30.1 26.7 6.1 22 12.7 N 13 26 7 14 1008.9 1008.9 0.0
30/04:30pm 30.9 26.8 6.0 21 13.2 N 17 30 9 16 1008.9 1008.9 0.0
30/04:00pm 31.0 26.7 6.8 22 13.1 N 19 33 10 18 1008.9 1008.9 0.0
30/03:30pm 31.3 27.8 7.1 22 13.1 N 15 30 8 16 1009.1 1009.1 0.0
30/03:00pm 31.4 27.3 7.8 23 13.0 N 19 30 10 16 1009.3 1009.3 0.0
30/02:30pm 31.3 27.8 8.9 25 12.5 N 17 28 9 15 1009.8 1009.8 0.0
30/02:00pm 31.2 28.3 8.2 24 12.7 N 13 20 7 11 1010.1 1010.1 0.0
30/01:30pm 30.8 27.0 6.0 21 13.2 N 15 24 8 13 1010.5 1010.5 0.0
30/01:00pm 30.9 28.4 8.0 24 12.6 NNW 11 28 6 15 1011.0 1011.0 0.0
30/12:30pm 30.1 27.9 7.9 25 12.1 N 9 17 5 9 1011.5 1011.5 0.0
30/12:00pm 30.1 27.0 7.3 24 12.3 NNW 13 26 7 14 1011.9 1011.9 0.0
30/11:30am 29.5 27.0 8.0 26 11.7 N 11 24 6 13 1012.3 1012.3 0.0
30/11:00am 28.8 26.1 7.4 26 11.5 NNW 11 24 6 13 1013.0 1013.0 0.0
30/10:30am 28.2 25.9 7.4 27 11.2 NNW 9 17 5 9 1013.3 1013.3 0.0
30/10:00am 27.9 25.2 7.2 27 11.0 NNW 11 24 6 13 1013.6 1013.6 0.0
30/09:30am 28.0 25.9 8.3 29 10.7 N 9 20 5 11 1014.0 1014.0 0.0
30/09:00am 27.6 25.1 8.0 29 10.6 NNW 11 22 6 12 1014.1 1014.1 0.0
30/08:30am 26.7 23.9 8.6 32 9.8 NNW 13 28 7 15 1014.0 1014.0 0.0
30/08:00am 24.3 22.7 10.2 41 7.8 N 9 15 5 8 1014.1 1014.1 0.0
30/07:30am 21.5 20.9 12.4 56 5.1 N 7 19 4 10 1014.2 1014.2 0.0
30/07:00am 18.5 19.0 12.9 70 3.1 ESE 2 4 1 2 1014.1 1014.1 0.0
30/06:30am 18.1 18.5 11.2 64 3.7 CALM 0 0 0 0 1013.8 1013.8 0.0
30/06:00am 18.9 18.4 10.7 59 4.4 NE 4 6 2 3 1013.7 1013.7 0.0
30/05:30am 18.5 17.6 10.6 60 4.2 NNE 6 7 3 4 1013.7 1013.7 0.0
30/05:00am 22.4 21.0 8.9 42 7.2 N 6 9 3 5 1013.5 1013.5 0.0
30/04:30am 22.3 21.2 10.8 48 6.3 NNW 7 13 4 7 1013.5 1013.5 0.0
30/04:21am 19.4 19.2 13.1 67 3.6 N 6 13 3 7 1013.5 1013.5 0.0
30/04:00am 12.8 13.2 11.4 91 0.7 CALM 0 0 0 0 1013.3 1013.3 0.0
30/03:30am 12.4 12.7 10.8 90 0.8 CALM 0 0 0 0 1013.4 1013.4 0.0
30/03:00am 12.5 12.9 11.1 91 0.7 CALM 0 6 0 3 1013.6 1013.6 0.0
30/02:30am 12.5 12.8 10.9 90 0.8 CALM 0 0 0 0 1013.8 1013.8 0.0
30/02:00am 12.8 13.1 10.9 88 1.0 CALM 0 0 0 0 1014.0 1014.0 0.0
30/01:30am 13.3 13.7 11.2 87 1.1 CALM 0 0 0 0 1014.3 1014.3 0.0
30/01:00am 13.7 14.1 11.4 86 1.2 CALM 0 0 0 0 1014.5 1014.5 0.0
30/12:30am 14.0 14.4 11.3 84 1.4 CALM 0 0 0 0 1014.7 1014.7 0.0
30/12:00am 14.5 15.0 11.7 83 1.5 CALM 0 0 0 0 1014.8 1014.8 0.0
 
Date/Time
EST
Tmp

°C
App
Tmp
°C
Dew
Point
°C
Rel
Hum
%
Delta-T

°C
Wind Press
QNH
hPa
Press
MSL
hPa
Rain
since
9 am
mm
Dir
 
Spd
km/h
Gust
km/h
Spd
kts
Gust
kts
29/11:30pm 15.1 15.7 11.9 81 1.7 CALM 0 2 0 1 1015.0 1015.0 0.0
29/11:00pm 14.9 15.0 11.5 80 1.8 NNE 2 6 1 3 1015.1 1015.1 0.0
29/10:30pm 15.5 16.2 12.1 80 1.9 CALM 0 0 0 0 1015.2 1015.2 0.0
29/10:00pm 16.4 17.0 12.0 75 2.4 CALM 0 0 0 0 1015.3 1015.3 0.0
29/09:30pm 18.4 18.0 11.0 62 4.0 WNW 4 6 2 3 1015.3 1015.3 0.0
29/09:00pm 19.3 19.0 11.3 60 4.4 NNW 4 7 2 4 1015.1 1015.1 0.0
29/08:30pm 19.3 18.7 11.8 62 4.1 N 6 9 3 5 1015.0 1015.0 0.0
29/08:00pm 19.9 19.3 11.7 59 4.5 N 6 7 3 4 1014.8 1014.8 0.0
29/07:30pm 18.8 18.8 12.3 66 3.6 NNW 4 6 2 3 1014.5 1014.5 0.0
29/07:00pm 21.4 20.9 10.9 51 5.8 NW 4 6 2 3 1014.1 1014.1 0.0
29/06:30pm 23.6 22.7 9.2 40 7.8 N 4 6 2 3 1013.7 1013.7 0.0
29/06:00pm 26.3 24.9 7.4 30 10.0 NNW 4 7 2 4 1013.3 1013.3 0.0
29/05:30pm 27.7 25.7 7.0 27 11.0 N 7 15 4 8 1012.9 1012.9 0.0
29/05:00pm 29.1 27.1 7.1 25 11.8 N 7 13 4 7 1012.5 1012.5 0.0
29/04:30pm 30.0 27.8 6.0 22 12.7 N 7 15 4 8 1012.0 1012.0 0.0
29/04:00pm 31.0 28.3 5.4 20 13.5 NNW 9 15 5 8 1011.9 1011.9 0.0
29/03:30pm 30.9 28.4 4.6 19 13.7 NNW 7 13 4 7 1011.9 1011.9 0.0
29/03:00pm 30.1 26.7 6.1 22 12.7 N 13 22 7 12 1012.1 1012.1 0.0
29/02:30pm 30.3 27.7 6.2 22 12.8 N 9 15 5 8 1012.3 1012.3 0.0
29/02:00pm 29.9 27.3 7.8 25 12.0 NNW 11 20 6 11 1012.6 1012.6 0.0
29/01:30pm 29.5 26.9 6.2 23 12.3 NNW 9 20 5 11 1013.0 1013.0 0.0
29/01:00pm 29.1 25.8 6.5 24 12.0 N 13 22 7 12 1013.4 1013.4 0.0
29/12:30pm 28.6 26.1 6.7 25 11.6 N 9 20 5 11 1013.8 1013.8 0.0
29/12:00pm 28.3 25.6 5.8 24 11.7 N 9 17 5 9 1014.3 1014.3 0.0
29/11:30am 27.8 24.7 7.1 27 11.0 N 13 20 7 11 1014.7 1014.7 0.0
29/11:00am 27.2 24.2 4.3 23 11.6 NW 9 17 5 9 1015.1 1015.1 0.0
29/10:30am 27.3 25.3 8.7 31 10.1 NNW 9 19 5 10 1015.2 1015.2 0.0
29/10:00am 26.9 25.0 7.4 29 10.4 NNW 7 15 4 8 1015.3 1015.3 0.0
29/09:30am 25.8 23.1 5.4 27 10.4 NNW 9 20 5 11 1015.5 1015.5 0.0
29/09:00am 25.1 23.0 6.8 31 9.5 NNW 7 13 4 7 1015.5 1015.5 0.0
29/08:30am 24.4 22.5 6.6 32 9.2 NW 6 11 3 6 1015.5 1015.5 0.0
29/08:00am 23.1 20.7 6.8 35 8.4 NNW 9 22 5 12 1015.2 1015.2 0.0
29/07:30am 19.2 18.9 12.7 66 3.6 NNW 6 11 3 6 1015.3 1015.3 0.0
29/07:27am 18.6 18.6 13.5 72 2.9 N 6 11 3 6 1015.3 1015.3 0.0
29/07:00am 13.6 14.3 13.4 99 0.1 NNE 2 4 1 2 1015.4 1015.4 0.0
29/06:30am 9.6 9.1 9.3 98 0.1 ESE 2 6 1 3 1015.5 1015.5 0.0
29/06:00am 8.3 7.8 7.9 97 0.2 CALM 0 6 0 3 1015.3 1015.3 0.0
29/05:30am 7.7 7.0 7.1 96 0.3 CALM 0 0 0 0 1015.1 1015.1 0.0
29/05:00am 7.6 6.9 7.0 96 0.3 CALM 0 0 0 0 1015.0 1015.0 0.0
29/04:30am 7.6 6.9 6.9 95 0.3 CALM 0 0 0 0 1015.1 1015.1 0.0
29/04:00am 8.2 7.6 7.6 96 0.3 CALM 0 0 0 0 1015.2 1015.2 0.0
29/03:30am 8.4 7.9 7.8 96 0.3 CALM 0 0 0 0 1015.3 1015.3 0.0
29/03:00am 8.9 8.5 8.3 96 0.3 CALM 0 4 0 2 1015.5 1015.5 0.0
29/02:30am 9.0 8.6 8.2 95 0.4 CALM 0 0 0 0 1015.7 1015.7 0.0
29/02:00am 9.3 8.6 8.5 95 0.4 WNW 2 4 1 2 1015.9 1015.9 0.0
29/01:30am 9.5 9.2 8.7 95 0.4 CALM 0 0 0 0 1016.2 1016.2 0.0
29/01:00am 9.6 9.3 8.5 93 0.5 CALM 0 0 0 0 1016.7 1016.7 0.0
29/12:30am 10.0 9.8 9.1 94 0.4 CALM 0 0 0 0 1017.1 1017.1 0.0
29/12:00am 10.5 10.4 9.6 94 0.5 CALM 0 0 0 0 1017.4 1017.4 0.0
 
Date/Time
EST
Tmp

°C
App
Tmp
°C
Dew
Point
°C
Rel
Hum
%
Delta-T

°C
Wind Press
QNH
hPa
Press
MSL
hPa
Rain
since
9 am
mm
Dir
 
Spd
km/h
Gust
km/h
Spd
kts
Gust
kts
28/11:30pm 10.9 11.0 10.0 94 0.5 CALM 0 0 0 0 1017.4 1017.4 0.0
28/11:00pm 11.3 11.4 10.2 93 0.6 CALM 0 0 0 0 1017.6 1017.6 0.0
28/10:30pm 11.3 10.9 9.9 91 0.7 N 2 4 1 2 1017.7 1017.7 0.0
28/10:00pm 12.4 12.6 10.6 89 0.9 CALM 0 0 0 0 1017.7 1017.7 0.0
28/09:30pm 13.4 13.6 10.6 83 1.5 CALM 0 0 0 0 1017.9 1017.9 0.0
28/09:00pm 14.6 14.8 10.6 77 2.1 CALM 0 4 0 2 1017.8 1017.8 0.0
28/08:30pm 15.8 15.8 11.0 73 2.6 NE 2 6 1 3 1017.8 1017.8 0.0
28/08:00pm 16.4 16.0 11.1 71 2.8 ENE 4 7 2 4 1017.6 1017.6 0.0
28/07:30pm 16.8 16.4 11.1 69 3.1 NE 4 7 2 4 1017.3 1017.3 0.0
28/07:00pm 17.1 17.0 10.9 67 3.3 NE 2 6 1 3 1017.2 1017.2 0.0
28/06:30pm 17.9 17.5 11.0 64 3.7 NE 4 9 2 5 1016.9 1016.9 0.0

Latest Capital City Observations: Canberra | Sydney | Melbourne | Brisbane | Adelaide | Perth | Hobart | Darwin

Other Formats:

Comma delimited format used in spreadsheet applications
http://www.bom.gov.au/fwo/IDN60901/IDN60901.95767.axf

JavaScript Object Notation format (JSON) in row-major order
http://www.bom.gov.au/fwo/IDN60901/IDN60901.95767.json